createdAt,value
2022-10-28T00:03:07.973Z,7.25
2022-10-28T00:08:09.709Z,8.50
2022-10-28T00:13:11.182Z,8.43
2022-10-28T00:18:12.760Z,8.90
2022-10-28T00:23:14.237Z,8.27
2022-10-28T00:28:15.677Z,9.68
2022-10-28T00:33:17.134Z,8.27
2022-10-28T00:38:18.614Z,9.32
2022-10-28T00:43:33.946Z,8.75
2022-10-28T00:48:41.229Z,9.57
2022-10-28T00:53:44.684Z,8.82
2022-10-28T00:58:49.736Z,9.27
2022-10-28T01:03:51.718Z,9.80
2022-10-28T01:08:57.535Z,9.50
2022-10-28T01:14:52.732Z,9.38
2022-10-28T01:20:19.728Z,10.00
2022-10-28T01:26:09.093Z,9.27
2022-10-28T01:31:43.816Z,9.55
2022-10-28T01:37:16.907Z,10.00
2022-10-28T01:42:30.557Z,10.32
2022-10-28T01:47:38.676Z,10.70
2022-10-28T01:52:42.294Z,10.20
2022-10-28T01:57:44.429Z,9.85
2022-10-28T02:02:48.022Z,10.93
2022-10-28T02:07:54.614Z,10.95
2022-10-28T02:12:57.477Z,11.07
2022-10-28T02:18:39.301Z,10.90
2022-10-28T02:23:52.667Z,10.82
2022-10-28T02:29:03.148Z,10.57
2022-10-28T02:34:09.387Z,10.63
2022-10-28T02:39:11.147Z,10.82
2022-10-28T02:44:17.987Z,10.18
2022-10-28T02:49:19.894Z,10.93
2022-10-28T02:54:28.264Z,10.05
2022-10-28T02:59:29.912Z,9.88
2022-10-28T03:04:31.584Z,9.57
2022-10-28T03:09:33.039Z,10.27
2022-10-28T03:14:34.525Z,9.88
2022-10-28T03:19:36.070Z,11.40
2022-10-28T03:24:37.556Z,10.80
2022-10-28T03:29:43.335Z,10.10
2022-10-28T03:34:47.511Z,10.35
2022-10-28T03:39:49.003Z,10.43
2022-10-28T03:44:50.491Z,10.07
2022-10-28T03:49:51.982Z,10.38
2022-10-28T03:54:53.476Z,9.75
2022-10-28T03:59:54.952Z,9.43
2022-10-28T04:04:56.431Z,9.70
2022-10-28T04:09:57.902Z,10.10
2022-10-28T04:14:59.402Z,9.35
2022-10-28T04:20:00.891Z,10.60
2022-10-28T04:25:02.430Z,10.25
2022-10-28T04:30:05.207Z,10.18
2022-10-28T04:35:07.320Z,9.70
2022-10-28T04:40:09.613Z,9.45
2022-10-28T04:45:11.329Z,10.15
2022-10-28T04:50:12.872Z,10.23
2022-10-28T04:55:14.359Z,9.23
2022-10-28T05:00:15.971Z,9.15
2022-10-28T05:05:18.269Z,9.15
2022-10-28T05:10:19.735Z,9.55
2022-10-28T05:15:21.200Z,8.52
2022-10-28T05:20:22.898Z,9.57
2022-10-28T05:25:24.403Z,10.13
2022-10-28T05:30:26.684Z,8.63
2022-10-28T05:35:29.217Z,9.40
2022-10-28T05:40:32.679Z,9.77
2022-10-28T05:45:34.154Z,9.25
2022-10-28T05:50:35.681Z,9.50
2022-10-28T05:55:37.157Z,9.73
2022-10-28T06:00:38.637Z,8.73
2022-10-28T06:05:45.780Z,8.50
2022-10-28T06:10:56.551Z,8.65
2022-10-28T06:15:58.064Z,8.75
2022-10-28T06:20:59.638Z,9.23
2022-10-28T06:26:03.207Z,8.43
2022-10-28T06:31:07.255Z,8.38
2022-10-28T06:36:08.710Z,8.63
2022-10-28T06:41:10.183Z,8.52
2022-10-28T06:46:11.664Z,8.05
2022-10-28T06:51:16.892Z,8.90
2022-10-28T06:56:18.646Z,7.97
2022-10-28T07:01:20.759Z,8.15
2022-10-28T07:06:22.319Z,8.57
2022-10-28T07:11:24.166Z,8.63
2022-10-28T07:16:25.688Z,8.43
2022-10-28T07:21:29.721Z,7.70
2022-10-28T07:26:31.231Z,7.80
2022-10-28T07:31:32.665Z,9.00
2022-10-28T07:36:34.112Z,8.45
2022-10-28T07:41:37.371Z,8.13
2022-10-28T07:46:38.834Z,8.07
2022-10-28T07:51:40.877Z,8.10
2022-10-28T07:56:42.380Z,7.82
2022-10-28T08:01:43.940Z,8.35
2022-10-28T08:06:45.687Z,7.85
2022-10-28T08:11:47.142Z,8.35
2022-10-28T08:16:48.604Z,7.53
2022-10-28T08:21:50.059Z,7.15
2022-10-28T08:26:51.650Z,7.15
2022-10-28T08:31:53.170Z,7.63
2022-10-28T08:36:55.503Z,7.82
2022-10-28T08:42:15.676Z,7.47
2022-10-28T08:47:32.522Z,8.57
2022-10-28T08:52:39.191Z,7.23
2022-10-28T08:57:49.273Z,7.60
2022-10-28T09:03:12.100Z,6.50
2022-10-28T09:08:23.475Z,6.70
2022-10-28T09:13:31.863Z,7.10
2022-10-28T09:18:51.049Z,6.47
2022-10-28T09:24:01.242Z,6.63
2022-10-28T09:29:26.354Z,7.78
2022-10-28T09:34:43.651Z,6.80
2022-10-28T09:40:00.235Z,6.38
2022-10-28T09:45:06.202Z,6.50
2022-10-28T09:50:17.348Z,6.82
2022-10-28T09:55:23.193Z,7.05
2022-10-28T10:00:24.867Z,5.85
2022-10-28T10:05:26.927Z,7.28
2022-10-28T10:10:34.933Z,6.05
2022-10-28T10:15:45.645Z,5.60
2022-10-28T10:20:50.816Z,6.35
2022-10-28T10:26:09.481Z,5.95
2022-10-28T10:31:31.719Z,6.00
2022-10-28T10:36:34.316Z,5.50
2022-10-28T10:41:41.540Z,5.70
2022-10-28T10:52:17.944Z,6.75
2022-10-28T10:57:22.242Z,5.82
2022-10-28T11:02:32.594Z,6.00
2022-10-28T11:07:34.607Z,5.78
2022-10-28T11:12:36.754Z,5.43
2022-10-28T11:17:38.236Z,6.68
2022-10-28T11:22:58.517Z,6.10
2022-10-28T11:28:26.650Z,5.82
2022-10-28T11:33:51.547Z,5.65
2022-10-28T11:39:28.128Z,6.60
2022-10-28T11:44:52.174Z,6.38
2022-10-28T11:50:05.427Z,5.88
2022-10-28T11:55:38.194Z,6.60
2022-10-28T12:01:04.069Z,6.40
2022-10-28T12:06:26.484Z,7.10
2022-10-28T12:11:42.821Z,6.05
2022-10-28T12:16:56.196Z,6.13
2022-10-28T12:22:08.988Z,6.57
2022-10-28T12:27:42.433Z,6.32
2022-10-28T12:32:45.501Z,6.07
2022-10-28T12:37:50.080Z,6.60
2022-10-28T12:43:09.394Z,6.50
2022-10-28T12:48:42.429Z,6.78
2022-10-28T12:53:56.235Z,7.13
2022-10-28T12:59:06.484Z,5.55
2022-10-28T13:04:12.741Z,6.75
2022-10-28T13:09:20.368Z,6.70
2022-10-28T13:14:40.932Z,6.47
2022-10-28T13:20:19.523Z,6.25
2022-10-28T13:25:45.797Z,5.78
2022-10-28T13:31:15.410Z,5.93
2022-10-28T13:36:22.607Z,5.38
2022-10-28T13:41:34.883Z,5.72
2022-10-28T13:47:22.526Z,5.15
2022-10-28T13:52:24.229Z,4.72
2022-10-28T13:57:47.315Z,4.90
2022-10-28T14:02:55.571Z,5.45
2022-10-28T14:08:03.034Z,5.05
2022-10-28T14:13:20.366Z,5.72
2022-10-28T14:23:45.056Z,4.85
2022-10-28T14:28:50.897Z,5.07
2022-10-28T14:33:55.070Z,4.97
2022-10-28T14:39:19.993Z,4.35
2022-10-28T14:44:24.122Z,5.50
2022-10-28T14:49:29.924Z,5.00
2022-10-28T14:54:42.413Z,5.95
2022-10-28T14:59:45.412Z,6.13
2022-10-28T15:05:00.360Z,5.78
2022-10-28T15:10:21.569Z,5.63
2022-10-28T15:15:26.011Z,6.40
2022-10-28T15:20:29.200Z,5.70
2022-10-28T15:25:30.729Z,5.47
2022-10-28T15:30:34.577Z,6.07
2022-10-28T15:35:40.485Z,5.85
2022-10-28T15:40:41.994Z,5.90
2022-10-28T15:45:43.493Z,5.70
2022-10-28T15:50:45.033Z,7.25
2022-10-28T16:01:39.649Z,5.72
2022-10-28T16:06:41.321Z,8.63
2022-10-28T16:11:52.724Z,13.00
2022-10-28T16:16:54.236Z,5.80
2022-10-28T16:21:56.190Z,5.95
2022-10-28T16:27:17.918Z,6.25
2022-10-28T16:32:28.781Z,6.93
2022-10-28T16:37:32.788Z,6.47
2022-10-28T16:42:36.648Z,5.28
2022-10-28T16:47:38.114Z,6.80
2022-10-28T16:52:39.677Z,6.00
2022-10-28T16:57:41.154Z,6.13
2022-10-28T17:02:43.076Z,5.72
2022-10-28T17:07:44.708Z,6.72
2022-10-28T17:12:46.438Z,5.82
2022-10-28T17:17:52.872Z,6.15
2022-10-28T17:22:54.767Z,6.13
2022-10-28T17:27:57.002Z,6.18
2022-10-28T17:32:58.869Z,6.28
2022-10-28T17:38:00.371Z,5.75
2022-10-28T17:43:01.881Z,6.18
2022-10-28T17:48:03.495Z,5.82
2022-10-28T17:53:04.954Z,7.32
2022-10-28T17:58:06.415Z,6.63
2022-10-28T18:03:10.016Z,7.15
2022-10-28T18:08:11.557Z,6.30
2022-10-28T18:13:13.040Z,6.35
2022-10-28T18:18:14.600Z,5.70
2022-10-28T18:23:16.125Z,8.23
2022-10-28T18:28:17.777Z,5.97
2022-10-28T18:33:19.344Z,10.27
2022-10-28T18:38:20.803Z,11.40
2022-10-28T18:43:23.037Z,6.28
2022-10-28T18:48:24.507Z,7.28
2022-10-28T18:53:26.921Z,4.90
2022-10-28T18:58:28.708Z,5.78
2022-10-28T19:03:31.248Z,7.00
2022-10-28T19:08:33.013Z,6.15
2022-10-28T19:13:37.054Z,6.78
2022-10-28T19:18:38.845Z,7.63
2022-10-28T19:23:40.908Z,6.63
2022-10-28T19:28:44.744Z,6.22
2022-10-28T19:33:46.443Z,5.85
2022-10-28T19:38:49.640Z,6.40
2022-10-28T19:43:58.160Z,5.45
2022-10-28T19:49:04.445Z,6.13
2022-10-28T19:54:09.837Z,6.15
2022-10-28T19:59:11.325Z,7.13
2022-10-28T20:04:12.821Z,6.47
2022-10-28T20:09:14.276Z,5.57
2022-10-28T20:14:15.929Z,4.75
2022-10-28T20:19:18.437Z,5.45
2022-10-28T20:24:20.406Z,6.18
2022-10-28T20:29:21.873Z,6.43
2022-10-28T20:34:23.463Z,6.25
2022-10-28T20:39:26.102Z,6.63
2022-10-28T20:44:27.622Z,6.05
2022-10-28T20:49:29.083Z,6.13
2022-10-28T20:54:30.553Z,6.07
2022-10-28T20:59:32.003Z,5.35
2022-10-28T21:04:33.642Z,7.00
2022-10-28T21:09:35.086Z,9.88
2022-10-28T21:14:36.557Z,13.10
2022-10-28T21:19:38.013Z,11.60
2022-10-28T21:24:39.499Z,11.43
2022-10-28T21:29:41.043Z,11.98
2022-10-28T21:34:42.571Z,12.85
2022-10-28T21:39:44.516Z,9.90
2022-10-28T21:44:45.990Z,7.40
2022-10-28T21:49:47.502Z,7.45
2022-10-28T21:54:48.956Z,7.07
2022-10-28T21:59:50.428Z,5.43
2022-10-28T22:04:51.886Z,5.32
2022-10-28T22:09:53.372Z,6.10
2022-10-28T22:14:54.856Z,5.43
2022-10-28T22:19:56.705Z,5.55
2022-10-28T22:24:58.183Z,6.30
2022-10-28T22:29:59.654Z,6.07
2022-10-28T22:35:01.106Z,5.10
2022-10-28T22:40:02.572Z,6.28
2022-10-28T22:45:04.300Z,5.90
2022-10-28T22:50:05.926Z,5.15
2022-10-28T22:55:07.591Z,5.03
2022-10-28T23:00:10.281Z,4.50
2022-10-28T23:05:11.794Z,5.68
2022-10-28T23:10:13.435Z,5.00
2022-10-28T23:15:15.002Z,4.63
2022-10-28T23:20:21.097Z,6.45
2022-10-28T23:25:22.714Z,5.40
2022-10-28T23:30:24.228Z,6.18
2022-10-28T23:35:25.839Z,5.78
2022-10-28T23:40:27.304Z,5.43
2022-10-28T23:45:28.798Z,5.82
2022-10-28T23:50:30.301Z,5.45
2022-10-28T23:55:31.856Z,5.60
